| time (UTC) | temp F | wind direction | speed MPH | gust MPH | rain 1hr in | rain 24hr in | rain mn in | humidity % | barometer mb |
| 20260509182505 | 83 | 102 | 3.0 | 9.0 | 0.00 | 0.00 | 0.00 | 64 | 1010.7 |
| 20260509182004 | 83 | 130 | 2.0 | 10.0 | 0.00 | 0.00 | 0.00 | 67 | 1010.7 |
| 20260509181504 | 82 | 69 | 1.0 | 8.0 | 0.00 | 0.00 | 0.00 | 67 | 1010.8 |
| 20260509181004 | 82 | 81 | 6.0 | 9.0 | 0.00 | 0.00 | 0.00 | 66 | 1010.9 |
| 20260509180504 | 81 | 85 | 5.0 | 12.0 | 0.00 | 0.00 | 0.00 | 68 | 1011.0 |
| 20260509180004 | 82 | 40 | 0.0 | 6.0 | 0.00 | 0.00 | 0.00 | 66 | 1011.0 |
| 20260509175504 | 82 | 47 | 1.0 | 5.0 | 0.00 | 0.00 | 0.00 | 67 | 1011.1 |
| 20260509175005 | 82 | 0 | 3.0 | 9.0 | 0.00 | 0.00 | 0.00 | 67 | 1011.2 |
| 20260509174504 | 82 | 347 | 3.0 | 9.0 | 0.00 | 0.00 | 0.00 | 68 | 1011.3 |
| 20260509173504 | 81 | 123 | 4.0 | 12.0 | 0.00 | 0.00 | 0.00 | 68 | 1011.3 |
| 20260509173004 | 81 | 19 | 3.0 | 8.0 | 0.00 | 0.00 | 0.00 | 68 | 1011.3 |
| 20260509172505 | 81 | 356 | 3.0 | 10.0 | 0.00 | 0.00 | 0.00 | 69 | 1011.4 |
| 20260509171504 | 80 | 67 | 5.0 | 12.0 | 0.00 | 0.00 | 0.00 | 70 | 1011.5 |
| 20260509171004 | 80 | 62 | 3.0 | 12.0 | 0.00 | 0.00 | 0.00 | 71 | 1011.4 |
| 20260509170004 | 79 | 312 | 2.0 | 10.0 | 0.00 | 0.00 | 0.00 | 72 | 1011.5 |
| 20260509165004 | 78 | 276 | 2.0 | 7.0 | 0.00 | 0.00 | 0.00 | 73 | 1011.4 |
| 20260509164504 | 78 | 348 | 2.0 | 8.0 | 0.00 | 0.00 | 0.00 | 73 | 1011.5 |
| 20260509163504 | 78 | 355 | 5.0 | 12.0 | 0.00 | 0.00 | 0.00 | 73 | 1011.6 |
| 20260509163004 | 78 | 19 | 6.0 | 13.0 | 0.00 | 0.00 | 0.00 | 73 | 1011.5 |
| 20260509162504 | 78 | 353 | 5.0 | 12.0 | 0.00 | 0.00 | 0.00 | 74 | 1011.4 |
| 20260509161503 | 76 | 6 | 5.0 | 14.0 | 0.00 | 0.00 | 0.00 | 76 | 1011.4 |
| 20260509161004 | 76 | 310 | 6.0 | 13.0 | 0.00 | 0.00 | 0.00 | 76 | 1011.5 |
| 20260509160504 | 77 | 27 | 3.0 | 13.0 | 0.00 | 0.00 | 0.00 | 76 | 1011.5 |
| 20260509160004 | 76 | 21 | 3.0 | 7.0 | 0.00 | 0.00 | 0.00 | 76 | 1011.5 |
| 20260509155504 | 75 | 29 | 5.0 | 12.0 | 0.00 | 0.00 | 0.00 | 78 | 1011.5 |
| 20260509155004 | 75 | 28 | 5.0 | 14.0 | 0.00 | 0.00 | 0.00 | 78 | 1011.5 |
| 20260509153504 | 74 | 348 | 6.0 | 13.0 | 0.00 | 0.00 | 0.00 | 81 | 1011.6 |
| 20260509153004 | 74 | 338 | 6.0 | 13.0 | 0.00 | 0.00 | 0.00 | 80 | 1011.7 |
| 20260509152004 | 74 | 343 | 4.0 | 13.0 | 0.00 | 0.00 | 0.00 | 81 | 1011.5 |
| 20260509151504 | 73 | 21 | 5.0 | 12.0 | 0.00 | 0.00 | 0.00 | 82 | 1011.7 |
| 20260509151004 | 73 | 5 | 2.0 | 9.0 | 0.00 | 0.00 | 0.00 | 81 | 1011.6 |
| 20260509150504 | 73 | 356 | 6.0 | 10.0 | 0.00 | 0.00 | 0.00 | 81 | 1011.5 |
| 20260509150004 | 73 | 349 | 5.0 | 10.0 | 0.00 | 0.00 | 0.00 | 82 | 1011.5 |
| 20260509145504 | 72 | 25 | 4.0 | 9.0 | 0.00 | 0.00 | 0.00 | 83 | 1011.6 |
| 20260509145003 | 72 | 355 | 3.0 | 6.0 | 0.00 | 0.00 | 0.00 | 83 | 1011.5 |
| 20260509144503 | 72 | 335 | 2.0 | 7.0 | 0.00 | 0.00 | 0.00 | 83 | 1011.6 |
| 20260509144004 | 72 | 305 | 4.0 | 12.0 | 0.00 | 0.00 | 0.00 | 84 | 1011.5 |
| 20260509143504 | 72 | 19 | 3.0 | 7.0 | 0.00 | 0.00 | 0.00 | 84 | 1011.4 |
| 20260509143003 | 71 | 344 | 4.0 | 10.0 | 0.00 | 0.00 | 0.00 | 84 | 1011.3 |
| 20260509142004 | 71 | 341 | 4.0 | 12.0 | 0.00 | 0.00 | 0.00 | 85 | 1011.3 |
| 20260509141503 | 71 | 330 | 3.0 | 12.0 | 0.00 | 0.00 | 0.00 | 85 | 1011.1 |
| 20260509141004 | 71 | 341 | 5.0 | 13.0 | 0.00 | 0.00 | 0.00 | 85 | 1011.1 |
| 20260509140004 | 71 | 280 | 2.0 | 6.0 | 0.00 | 0.00 | 0.00 | 86 | 1011.0 |
| 20260509135504 | 71 | 295 | 2.0 | 9.0 | 0.00 | 0.00 | 0.00 | 86 | 1011.1 |
| 20260509135003 | 71 | 352 | 3.0 | 12.0 | 0.00 | 0.00 | 0.00 | 86 | 1011.0 |
| 20260509134504 | 71 | 347 | 3.0 | 12.0 | 0.00 | 0.00 | 0.00 | 87 | 1011.0 |
| 20260509134004 | 71 | 305 | 3.0 | 7.0 | 0.00 | 0.00 | 0.00 | 88 | 1010.9 |
| 20260509133004 | 70 | 332 | 3.0 | 12.0 | 0.00 | 0.00 | 0.00 | 88 | 1010.7 |
| 20260509132503 | 70 | 304 | 3.0 | 10.0 | 0.00 | 0.01 | 0.00 | 88 | 1010.8 |
| 20260509132004 | 70 | 350 | 2.0 | 10.0 | 0.00 | 0.01 | 0.00 | 89 | 1010.8 |
| 20260509131503 | 70 | 341 | 3.0 | 9.0 | 0.00 | 0.01 | 0.00 | 89 | 1010.8 |
| 20260509131004 | 70 | 318 | 3.0 | 9.0 | 0.00 | 0.01 | 0.00 | 90 | 1011.0 |
| 20260509130504 | 70 | 258 | 2.0 | 5.0 | 0.00 | 0.01 | 0.00 | 90 | 1010.9 |
| 20260509130003 | 69 | 277 | 2.0 | 5.0 | 0.00 | 0.02 | 0.00 | 90 | 1010.8 |
| 20260509125004 | 69 | 311 | 0.0 | 2.0 | 0.00 | 0.03 | 0.00 | 90 | 1010.7 |
| 20260509124505 | 70 | 320 | 2.0 | 6.0 | 0.00 | 0.03 | 0.00 | 90 | 1010.7 |
| 20260509124004 | 70 | 284 | 3.0 | 10.0 | 0.00 | 0.06 | 0.00 | 90 | 1010.8 |
| 20260509123004 | 69 | 339 | 2.0 | 5.0 | 0.00 | 0.07 | 0.00 | 91 | 1010.8 |
| 20260509122004 | 69 | 256 | 4.0 | 8.0 | 0.00 | 0.07 | 0.00 | 92 | 1010.7 |
| 20260509121504 | 68 | 249 | 1.0 | 5.0 | 0.00 | 0.08 | 0.00 | 92 | 1010.7 |
| 20260509121004 | 68 | 236 | 2.0 | 5.0 | 0.00 | 0.08 | 0.00 | 92 | 1010.7 |
| 20260509120504 | 68 | 248 | 0.0 | 0.0 | 0.00 | 0.08 | 0.00 | 92 | 1010.6 |
| 20260509120004 | 68 | 248 | 0.0 | 0.0 | 0.00 | 0.08 | 0.00 | 93 | 1010.6 |
| 20260509115504 | 67 | 155 | 0.0 | 0.0 | 0.00 | 0.08 | 0.00 | 92 | 1010.5 |
| 20260509115004 | 67 | 141 | 0.0 | 0.0 | 0.00 | 0.08 | 0.00 | 92 | 1010.3 |
| 20260509114504 | 68 | 141 | 0.0 | 0.0 | 0.00 | 0.08 | 0.00 | 92 | 1010.1 |
| 20260509114004 | 68 | 141 | 0.0 | 0.0 | 0.00 | 0.08 | 0.00 | 92 | 1010.0 |
| 20260509113504 | 68 | 141 | 0.0 | 0.0 | 0.00 | 0.08 | 0.00 | 91 | 1010.0 |
| 20260509113004 | 68 | 141 | 0.0 | 0.0 | 0.00 | 0.08 | 0.00 | 91 | 1009.8 |
| 20260509112504 | 68 | 141 | 0.0 | 0.0 | 0.00 | 0.08 | 0.00 | 91 | 1009.8 |
| 20260509112004 | 68 | 141 | 0.0 | 0.0 | 0.00 | 0.08 | 0.00 | 91 | 1009.6 |
| 20260509111505 | 68 | 141 | 0.0 | 0.0 | 0.00 | 0.08 | 0.00 | 91 | 1009.6 |
| 20260509110504 | 69 | 141 | 0.0 | 0.0 | 0.00 | 0.18 | 0.00 | 90 | 1009.4 |
| 20260509110004 | 69 | 141 | 0.0 | 0.0 | 0.00 | 0.24 | 0.00 | 90 | 1009.3 |
| 20260509105504 | 69 | 141 | 0.0 | 0.0 | 0.00 | 0.25 | 0.00 | 89 | 1009.4 |
| 20260509105004 | 70 | 141 | 0.0 | 0.0 | 0.00 | 0.28 | 0.00 | 89 | 1009.3 |
| 20260509104504 | 70 | 141 | 0.0 | 0.0 | 0.00 | 0.28 | 0.00 | 89 | 1009.3 |
| 20260509104004 | 70 | 141 | 0.0 | 3.0 | 0.00 | 0.28 | 0.00 | 89 | 1009.3 |
| 20260509103504 | 70 | 141 | 0.0 | 3.0 | 0.00 | 0.28 | 0.00 | 89 | 1009.3 |
| 20260509102504 | 70 | 141 | 0.0 | 0.0 | 0.00 | 0.28 | 0.00 | 89 | 1009.1 |
| 20260509102004 | 70 | 141 | 0.0 | 1.0 | 0.00 | 0.29 | 0.00 | 88 | 1009.1 |
| 20260509101504 | 70 | 141 | 1.0 | 5.0 | 0.00 | 0.31 | 0.00 | 88 | 1009.2 |
| 20260509101004 | 70 | 130 | 3.0 | 7.0 | 0.00 | 0.43 | 0.00 | 88 | 1009.2 |
| 20260509100005 | 70 | 146 | 0.0 | 0.0 | 0.00 | 0.45 | 0.00 | 88 | 1009.1 |
| 20260509095504 | 70 | 146 | 0.0 | 3.0 | 0.00 | 0.45 | 0.00 | 88 | 1009.1 |
| 20260509093504 | 71 | 337 | 0.0 | 0.0 | 0.00 | 0.45 | 0.00 | 88 | 1009.1 |
| 20260509093004 | 71 | 337 | 0.0 | 0.0 | 0.00 | 0.45 | 0.00 | 88 | 1009.1 |
| 20260509092503 | 70 | 337 | 0.0 | 0.0 | 0.00 | 0.45 | 0.00 | 88 | 1009.1 |
| 20260509091504 | 70 | 209 | 0.0 | 0.0 | 0.00 | 0.45 | 0.00 | 88 | 1008.9 |
| 20260509091004 | 70 | 209 | 1.0 | 5.0 | 0.00 | 0.45 | 0.00 | 88 | 1008.5 |
| 20260509090504 | 70 | 176 | 0.0 | 7.0 | 0.00 | 0.46 | 0.00 | 88 | 1008.0 |
| 20260509090004 | 70 | 155 | 4.0 | 10.0 | 0.00 | 0.46 | 0.00 | 88 | 1007.6 |
| 20260509085504 | 70 | 119 | 3.0 | 10.0 | 0.00 | 0.46 | 0.00 | 88 | 1007.6 |
| 20260509085004 | 70 | 153 | 5.0 | 12.0 | 0.00 | 0.46 | 0.00 | 88 | 1007.5 |
| 20260509084504 | 70 | 148 | 4.0 | 12.0 | 0.00 | 0.46 | 0.00 | 88 | 1007.8 |
| 20260509084003 | 70 | 160 | 6.0 | 13.0 | 0.00 | 0.46 | 0.00 | 88 | 1007.9 |
| 20260509083503 | 70 | 163 | 9.0 | 17.0 | 0.00 | 0.46 | 0.00 | 87 | 1007.9 |
| 20260509082503 | 70 | 162 | 9.0 | 15.0 | 0.00 | 0.46 | 0.00 | 87 | 1008.3 |
| 20260509082004 | 70 | 165 | 8.0 | 14.0 | 0.00 | 0.47 | 0.00 | 87 | 1008.5 |
| 20260509081503 | 70 | 154 | 7.0 | 12.0 | 0.00 | 0.48 | 0.00 | 87 | 1008.7 |
| 20260509081004 | 71 | 168 | 8.0 | 13.0 | 0.00 | 0.48 | 0.00 | 87 | 1009.1 |
| 20260509080504 | 71 | 173 | 7.0 | 13.0 | 0.00 | 0.48 | 0.00 | 86 | 1009.3 |
| 20260509080007 | 71 | 188 | 5.0 | 13.0 | 0.00 | 0.51 | 0.00 | 86 | 1009.5 |
| 20260509075006 | 71 | 168 | 7.0 | 12.0 | 0.00 | 0.66 | 0.00 | 86 | 1009.6 |
| 20260509074507 | 71 | 182 | 4.0 | 8.0 | 0.00 | 0.66 | 0.00 | 86 | 1009.9 |
| 20260509074007 | 71 | 176 | 3.0 | 9.0 | 0.00 | 0.66 | 0.00 | 86 | 1010.0 |
| 20260509073506 | 71 | 193 | 3.0 | 8.0 | 0.00 | 0.66 | 0.00 | 86 | 1010.2 |
| 20260509073006 | 71 | 221 | 3.0 | 6.0 | 0.00 | 0.66 | 0.00 | 86 | 1010.6 |
| 20260509072007 | 71 | 189 | 3.0 | 8.0 | 0.00 | 0.66 | 0.00 | 86 | 1010.7 |
| 20260509071506 | 70 | 235 | 1.0 | 6.0 | 0.00 | 0.66 | 0.00 | 86 | 1010.7 |
| 20260509071006 | 70 | 244 | 2.0 | 9.0 | 0.00 | 0.66 | 0.00 | 86 | 1010.7 |
| 20260509070507 | 71 | 228 | 1.0 | 6.0 | 0.00 | 0.66 | 0.00 | 85 | 1011.0 |
| 20260509070006 | 70 | 252 | 3.0 | 8.0 | 0.00 | 0.66 | 0.00 | 86 | 1011.1 |
| 20260509065506 | 70 | 242 | 3.0 | 9.0 | 0.00 | 0.66 | 0.00 | 86 | 1011.0 |
| 20260509065006 | 70 | 237 | 2.0 | 9.0 | 0.00 | 0.66 | 0.00 | 85 | 1011.0 |
| 20260509064507 | 70 | 261 | 4.0 | 8.0 | 0.00 | 0.66 | 0.00 | 85 | 1010.8 |
| 20260509064006 | 70 | 253 | 2.0 | 9.0 | 0.00 | 0.66 | 0.00 | 85 | 1010.7 |
| 20260509063506 | 70 | 256 | 2.0 | 8.0 | 0.00 | 0.66 | 0.00 | 85 | 1010.4 |
| 20260509063006 | 70 | 232 | 1.0 | 9.0 | 0.00 | 0.66 | 0.00 | 85 | 1010.4 |
| 20260509062507 | 70 | 173 | 2.0 | 6.0 | 0.00 | 0.66 | 0.00 | 85 | 1010.4 |
| 20260509062006 | 70 | 182 | 2.0 | 5.0 | 0.00 | 0.66 | 0.00 | 85 | 1010.6 |
| 20260509061507 | 70 | 183 | 1.0 | 3.0 | 0.00 | 0.66 | 0.00 | 84 | 1010.7 |
| 20260509061007 | 70 | 195 | 1.0 | 5.0 | 0.00 | 0.66 | 0.00 | 84 | 1010.6 |
| 20260509060507 | 70 | 268 | 1.0 | 7.0 | 0.00 | 0.66 | 0.00 | 84 | 1010.3 |
| 20260509060006 | 70 | 197 | 5.0 | 12.0 | 0.00 | 0.66 | 0.00 | 84 | 1010.3 |
| 20260509055507 | 70 | 170 | 2.0 | 6.0 | 0.00 | 0.66 | 0.00 | 83 | 1010.6 |
| 20260509055006 | 70 | 210 | 1.0 | 5.0 | 0.00 | 0.66 | 0.00 | 83 | 1011.2 |
| 20260509054506 | 71 | 291 | 1.0 | 3.0 | 0.00 | 0.66 | 0.00 | 83 | 1011.2 |
| 20260509053507 | 71 | 293 | 0.0 | 3.0 | 0.00 | 0.66 | 0.00 | 82 | 1011.4 |
| 20260509053007 | 71 | 293 | 0.0 | 0.0 | 0.00 | 0.66 | 0.00 | 82 | 1011.3 |
| 20260509052506 | 71 | 293 | 0.0 | 0.0 | 0.00 | 0.66 | 0.00 | 81 | 1011.3 |
| 20260509051506 | 71 | 328 | 1.0 | 2.0 | 0.00 | 0.66 | 0.00 | 81 | 1012.2 |
| 20260509051006 | 71 | 344 | 1.0 | 7.0 | 0.00 | 0.66 | 0.00 | 81 | 1012.2 |
| 20260509050507 | 71 | 346 | 3.0 | 9.0 | 0.00 | 0.66 | 0.00 | 82 | 1011.7 |
| 20260509050006 | 71 | 262 | 0.0 | 3.0 | 0.00 | 0.66 | 0.00 | 81 | 1011.2 |
| 20260509045506 | 71 | 261 | 0.0 | 2.0 | 0.00 | 0.66 | 0.66 | 81 | 1010.8 |
| 20260509045006 | 71 | 190 | 2.0 | 6.0 | 0.00 | 0.66 | 0.66 | 81 | 1010.6 |
| 20260509044506 | 71 | 180 | 0.0 | 0.0 | 0.00 | 0.66 | 0.66 | 80 | 1010.4 |
| 20260509044006 | 71 | 180 | 1.0 | 6.0 | 0.00 | 0.66 | 0.66 | 80 | 1010.3 |
| 20260509043506 | 71 | 181 | 3.0 | 8.0 | 0.00 | 0.66 | 0.66 | 80 | 1010.1 |
| 20260509042506 | 72 | 188 | 5.0 | 9.0 | 0.00 | 0.66 | 0.66 | 79 | 1010.7 |
| 20260509042006 | 72 | 177 | 2.0 | 8.0 | 0.00 | 0.66 | 0.66 | 79 | 1010.5 |
| 20260509041506 | 72 | 170 | 3.0 | 7.0 | 0.00 | 0.66 | 0.66 | 78 | 1010.7 |
| 20260509041006 | 72 | 175 | 2.0 | 9.0 | 0.00 | 0.66 | 0.66 | 78 | 1010.4 |
| 20260509040506 | 72 | 166 | 6.0 | 12.0 | 0.00 | 0.66 | 0.66 | 78 | 1010.2 |
| 20260509040006 | 72 | 168 | 6.0 | 12.0 | 0.00 | 0.66 | 0.66 | 78 | 1010.4 |
| 20260509035007 | 72 | 158 | 3.0 | 7.0 | 0.00 | 0.66 | 0.66 | 78 | 1010.6 |
| 20260509034506 | 72 | 161 | 3.0 | 7.0 | 0.00 | 0.66 | 0.66 | 78 | 1011.1 |
| 20260509034006 | 73 | 155 | 0.0 | 0.0 | 0.00 | 0.66 | 0.66 | 78 | 1011.5 |
| 20260509033506 | 72 | 155 | 0.0 | 0.0 | 0.00 | 0.66 | 0.66 | 78 | 1011.4 |
| 20260509032506 | 72 | 155 | 0.0 | 2.0 | 0.00 | 0.66 | 0.66 | 78 | 1010.9 |
| 20260509032007 | 72 | 155 | 1.0 | 3.0 | 0.00 | 0.66 | 0.66 | 78 | 1010.8 |
| 20260509031506 | 72 | 155 | 0.0 | 0.0 | 0.00 | 0.66 | 0.66 | 78 | 1010.9 |
| 20260509031006 | 72 | 155 | 0.0 | 3.0 | 0.00 | 0.66 | 0.66 | 78 | 1010.8 |
| 20260509030506 | 72 | 155 | 2.0 | 3.0 | 0.00 | 0.66 | 0.66 | 78 | 1010.9 |
| 20260509030006 | 72 | 105 | 1.0 | 5.0 | 0.00 | 0.66 | 0.66 | 78 | 1010.9 |
| 20260509025506 | 72 | 132 | 1.0 | 6.0 | 0.00 | 0.66 | 0.66 | 78 | 1010.7 |
| 20260509024506 | 72 | 163 | 0.0 | 1.0 | 0.00 | 0.66 | 0.66 | 78 | 1010.4 |
| 20260509024006 | 72 | 163 | 0.0 | 2.0 | 0.00 | 0.66 | 0.66 | 78 | 1009.8 |
| 20260509023506 | 72 | 163 | 2.0 | 12.0 | 0.00 | 0.66 | 0.66 | 78 | 1009.6 |
| 20260509022506 | 72 | 176 | 5.0 | 12.0 | 0.00 | 0.66 | 0.66 | 78 | 1009.3 |
| 20260509022006 | 72 | 169 | 7.0 | 15.0 | 0.00 | 0.66 | 0.66 | 78 | 1009.2 |
| 20260509021506 | 72 | 179 | 6.0 | 12.0 | 0.00 | 0.66 | 0.66 | 78 | 1009.2 |
| 20260509021006 | 72 | 173 | 5.0 | 10.0 | 0.00 | 0.66 | 0.66 | 77 | 1009.3 |
| 20260509020506 | 72 | 176 | 5.0 | 9.0 | 0.00 | 0.66 | 0.66 | 77 | 1009.3 |
| 20260509020006 | 72 | 179 | 6.0 | 13.0 | 0.00 | 0.66 | 0.66 | 77 | 1009.1 |
| 20260509015505 | 72 | 167 | 7.0 | 13.0 | 0.00 | 0.66 | 0.66 | 76 | 1009.2 |
| 20260509015006 | 72 | 169 | 7.0 | 13.0 | 0.00 | 0.66 | 0.66 | 76 | 1009.2 |
| 20260509014506 | 72 | 174 | 6.0 | 12.0 | 0.00 | 0.66 | 0.66 | 76 | 1009.0 |
| 20260509014006 | 72 | 170 | 5.0 | 8.0 | 0.00 | 0.66 | 0.66 | 76 | 1009.1 |
| 20260509013506 | 72 | 173 | 4.0 | 8.0 | 0.00 | 0.66 | 0.66 | 76 | 1009.2 |
| 20260509013006 | 72 | 177 | 1.0 | 6.0 | 0.00 | 0.66 | 0.66 | 76 | 1009.1 |
| 20260509012505 | 73 | 169 | 3.0 | 8.0 | 0.00 | 0.66 | 0.66 | 76 | 1009.2 |
| 20260509012006 | 73 | 164 | 4.0 | 8.0 | 0.00 | 0.66 | 0.66 | 75 | 1009.2 |
| 20260509011006 | 73 | 177 | 5.0 | 8.0 | 0.00 | 0.66 | 0.66 | 75 | 1009.2 |
| 20260509010506 | 73 | 182 | 2.0 | 7.0 | 0.00 | 0.66 | 0.66 | 74 | 1009.1 |
| 20260509010006 | 73 | 182 | 3.0 | 8.0 | 0.00 | 0.66 | 0.66 | 74 | 1009.0 |
| 20260509005506 | 73 | 159 | 2.0 | 8.0 | 0.00 | 0.66 | 0.66 | 73 | 1009.0 |
| 20260509004505 | 74 | 156 | 7.0 | 12.0 | 0.00 | 0.66 | 0.66 | 73 | 1008.7 |
| 20260509004006 | 74 | 166 | 5.0 | 12.0 | 0.00 | 0.66 | 0.66 | 73 | 1008.7 |
| 20260509003505 | 74 | 178 | 8.0 | 13.0 | 0.00 | 0.66 | 0.66 | 72 | 1008.6 |
| 20260509002506 | 74 | 159 | 9.0 | 13.0 | 0.00 | 0.66 | 0.66 | 71 | 1008.6 |
| 20260509001506 | 74 | 187 | 4.0 | 13.0 | 0.00 | 0.66 | 0.66 | 71 | 1008.6 |
| 20260509001005 | 74 | 149 | 8.0 | 13.0 | 0.00 | 0.66 | 0.66 | 71 | 1008.6 |
| 20260509000505 | 75 | 178 | 5.0 | 14.0 | 0.00 | 0.66 | 0.66 | 70 | 1008.6 |
| 20260509000005 | 75 | 160 | 9.0 | 15.0 | 0.00 | 0.66 | 0.66 | 70 | 1008.7 |
| 20260508235006 | 75 | 169 | 9.0 | 15.0 | 0.00 | 0.66 | 0.66 | 70 | 1008.9 |
| 20260508234506 | 75 | 173 | 5.0 | 12.0 | 0.00 | 0.66 | 0.66 | 70 | 1009.0 |
| 20260508234006 | 75 | 176 | 7.0 | 12.0 | 0.00 | 0.66 | 0.66 | 70 | 1009.0 |
| 20260508233006 | 75 | 174 | 5.0 | 15.0 | 0.00 | 0.66 | 0.66 | 69 | 1009.0 |
| 20260508232505 | 75 | 188 | 10.0 | 13.0 | 0.00 | 0.66 | 0.66 | 68 | 1009.1 |
| 20260508232006 | 75 | 176 | 7.0 | 13.0 | 0.00 | 0.66 | 0.66 | 68 | 1009.1 |
| 20260508231505 | 76 | 187 | 6.0 | 10.0 | 0.00 | 0.66 | 0.66 | 68 | 1009.1 |
| 20260508231006 | 76 | 174 | 7.0 | 13.0 | 0.00 | 0.66 | 0.66 | 67 | 1009.1 |
| 20260508230006 | 76 | 188 | 5.0 | 12.0 | 0.00 | 0.66 | 0.66 | 68 | 1009.2 |
| 20260508225505 | 76 | 187 | 6.0 | 10.0 | 0.00 | 0.66 | 0.66 | 67 | 1009.2 |
| 20260508224505 | 76 | 175 | 5.0 | 10.0 | 0.00 | 0.66 | 0.66 | 67 | 1009.3 |
| 20260508223505 | 76 | 182 | 7.0 | 13.0 | 0.00 | 0.66 | 0.66 | 66 | 1009.2 |
| 20260508223005 | 77 | 175 | 5.0 | 14.0 | 0.00 | 0.66 | 0.66 | 66 | 1009.2 |
| 20260508222506 | 77 | 170 | 9.0 | 13.0 | 0.00 | 0.66 | 0.66 | 66 | 1009.2 |
| 20260508222005 | 77 | 187 | 7.0 | 12.0 | 0.00 | 0.66 | 0.66 | 65 | 1009.1 |
| 20260508221505 | 78 | 169 | 7.0 | 12.0 | 0.00 | 0.66 | 0.66 | 64 | 1009.0 |
| 20260508220505 | 78 | 176 | 7.0 | 13.0 | 0.00 | 0.66 | 0.66 | 65 | 1009.0 |
| 20260508220005 | 78 | 187 | 4.0 | 10.0 | 0.00 | 0.66 | 0.66 | 64 | 1009.1 |
| 20260508215506 | 77 | 171 | 3.0 | 9.0 | 0.00 | 0.66 | 0.66 | 65 | 1009.0 |
| 20260508215005 | 78 | 134 | 9.0 | 14.0 | 0.00 | 0.66 | 0.66 | 64 | 1009.0 |
| 20260508214006 | 78 | 166 | 7.0 | 17.0 | 0.00 | 0.66 | 0.66 | 64 | 1009.0 |
| 20260508213505 | 78 | 145 | 9.0 | 13.0 | 0.00 | 0.66 | 0.66 | 63 | 1009.1 |
| 20260508213006 | 78 | 171 | 9.0 | 15.0 | 0.00 | 0.66 | 0.66 | 62 | 1009.0 |
| 20260508211505 | 78 | 171 | 7.0 | 15.0 | 0.00 | 0.66 | 0.66 | 63 | 1009.2 |
| 20260508211005 | 77 | 144 | 8.0 | 13.0 | 0.00 | 0.66 | 0.66 | 62 | 1009.7 |
| 20260508210505 | 78 | 166 | 5.0 | 13.0 | 0.00 | 0.66 | 0.66 | 62 | 1009.9 |
| 20260508210005 | 78 | 183 | 8.0 | 13.0 | 0.00 | 0.66 | 0.66 | 63 | 1010.0 |
| 20260508205505 | 77 | 195 | 5.0 | 9.0 | 0.00 | 0.66 | 0.66 | 63 | 1010.1 |
| 20260508205005 | 76 | 233 | 4.0 | 10.0 | 0.00 | 0.66 | 0.66 | 65 | 1010.4 |
| 20260508204505 | 75 | 184 | 2.0 | 13.0 | 0.00 | 0.66 | 0.66 | 66 | 1010.6 |
| 20260508204006 | 75 | 182 | 4.0 | 12.0 | 0.00 | 0.66 | 0.66 | 66 | 1010.9 |
| 20260508203006 | 76 | 192 | 6.0 | 13.0 | 0.00 | 0.66 | 0.66 | 64 | 1011.0 |
| 20260508202505 | 76 | 193 | 5.0 | 13.0 | 0.00 | 0.66 | 0.66 | 64 | 1011.0 |
| 20260508202005 | 76 | 206 | 3.0 | 8.0 | 0.00 | 0.66 | 0.66 | 65 | 1010.9 |
| 20260508201505 | 76 | 195 | 3.0 | 9.0 | 0.00 | 0.66 | 0.66 | 64 | 1010.9 |
| 20260508201005 | 76 | 200 | 3.0 | 8.0 | 0.00 | 0.66 | 0.66 | 64 | 1011.1 |
| 20260508200505 | 77 | 191 | 4.0 | 13.0 | 0.00 | 0.66 | 0.66 | 63 | 1011.1 |
| 20260508195505 | 77 | 209 | 4.0 | 10.0 | 0.00 | 0.66 | 0.66 | 62 | 1011.1 |
| 20260508195006 | 77 | 188 | 4.0 | 9.0 | 0.00 | 0.66 | 0.66 | 62 | 1011.2 |
| 20260508194505 | 77 | 186 | 6.0 | 13.0 | 0.00 | 0.66 | 0.66 | 61 | 1011.2 |
| 20260508194005 | 78 | 181 | 6.0 | 13.0 | 0.00 | 0.66 | 0.66 | 62 | 1011.3 |
| 20260508193505 | 78 | 187 | 5.0 | 12.0 | 0.00 | 0.66 | 0.66 | 63 | 1011.4 |
| 20260508192505 | 78 | 188 | 5.0 | 10.0 | 0.00 | 0.66 | 0.66 | 61 | 1011.3 |
| 20260508191505 | 79 | 151 | 6.0 | 12.0 | 0.00 | 0.66 | 0.66 | 59 | 1011.5 |
| 20260508191005 | 78 | 185 | 5.0 | 14.0 | 0.00 | 0.66 | 0.66 | 58 | 1011.5 |
| 20260508190005 | 79 | 211 | 5.0 | 12.0 | 0.00 | 0.66 | 0.66 | 57 | 1011.5 |
| 20260508185505 | 79 | 182 | 5.0 | 12.0 | 0.00 | 0.66 | 0.66 | 59 | 1011.5 |
| 20260508185005 | 78 | 222 | 2.0 | 12.0 | 0.00 | 0.66 | 0.66 | 59 | 1011.4 |
| 20260508184004 | 78 | 160 | 8.0 | 13.0 | 0.00 | 0.66 | 0.66 | 58 | 1011.5 |
| 20260508183005 | 78 | 183 | 5.0 | 13.0 | 0.00 | 0.66 | 0.66 | 58 | 1011.8 |